Terminal Aerodrome Forecast
Issued by NWS Newport/Morehead City, NC

Home | Current Version | Previous Version | Graphics & Text | Print | Product List | Glossary On
Versions: 1 2 3 4 5 6 7 8 9 10 11 12 13
000
FTUS42 KMHX 161737
TAFEWN
TAF
KEWN 161737Z 1618/1718 VRB04KT P6SM FEW250
     FM171000 VRB03KT P6SM BKN150
     FM171700 36007KT 3SM -RASN OVC100=

USA.gov is the U.S. government's official web portal to all federal, state and local government web resources and services.